Flight Track Log - Related Links

Times and Time Zones

All times are in EDT time to prevent confusion due to time zone crossing. See the EJA565 flight status page for this flight to view local times or setup timezone preferences in your user account.

Time Position Orientation Groundspeed Altitude Reporting Facility
EDT Latitude Longitude Course Direction KTS MPH feet Rate Location/Type
Tue 03:15:16 PM 40.0028 -82.9047 267° West 131 151 1,500  Level Indianapolis Center
Tue 03:15:57 PM 40.0008 -82.9531 267° West 203 234 3,700 3,519 Climbing Indianapolis Center
Tue 03:17:00 PM 40.0028 -83.0322 272° West 213 245 7,600 2,976 Climbing Indianapolis Center
Tue 03:18:00 PM 40.0674 -83.0918 325° Northwest  Level Estimated
Tue 03:18:02 PM 40.0456 -83.0867 325° Northwest 256 295 9,900  Level Indianapolis Center
Tue 03:19:04 PM 40.1289 -83.0969 355° North 293 337 12,600 2,710 Climbing Indianapolis Center
Tue 03:20:06 PM 40.2217 -83.1394 341° North 310 357 15,500 1,645 Climbing Indianapolis Center
Tue 03:21:08 PM 40.3003 -83.2061 327° Northwest 330 380 16,000 242 Climbing Indianapolis Center
Tue 03:22:10 PM 40.3861 -83.2775 328° Northwest 359 413 16,000  Level Indianapolis Center
Tue 03:23:12 PM 40.4719 -83.3483 328° Northwest 361 415 16,000 -48 Level Indianapolis Center
Tue 03:24:14 PM 40.5567 -83.4206 327° Northwest 360 414 15,900 -48 Descending Indianapolis Center
Tue 03:25:16 PM 40.6369 -83.4867 328° Northwest 343 395 15,900  Level Indianapolis Center
Tue 03:26:18 PM 40.7144 -83.5528 327° Northwest 333 383 15,900  Level Indianapolis Center
Tue 03:27:20 PM 40.8056 -83.6294 328° Northwest 331 381 15,900  Level Indianapolis Center
Tue 03:28:22 PM 40.8842 -83.6953 328° Northwest 332 382 15,900  Level Indianapolis Center
Tue 03:29:24 PM 40.9619 -83.7619 327° Northwest 330 380 15,900  Level Indianapolis Center
Tue 03:30:26 PM 41.0389 -83.8286 327° Northwest 329 379 15,900  Level Indianapolis Center
Tue 03:31:28 PM 41.1183 -83.9011 325° Northwest 327 376 15,900 65 Level Indianapolis Center
Tue 03:31:58 PM 41.1558 -83.9353 326° Northwest 329 379 16,000 65 Climbing Chicago Center
Tue 03:33:00 PM 41.2333 -84.0033 327° Northwest 334 384 16,000  Level Chicago Center
Tue 03:34:02 PM 41.3094 -84.0722 326° Northwest 334 384 16,000  Level Chicago Center
Tue 03:35:04 PM 41.3842 -84.1419 325° Northwest 332 382 16,000  Level Chicago Center
Tue 03:36:06 PM 41.4761 -84.2242 326° Northwest 334 384 16,000  Level Chicago Center
Tue 03:37:08 PM 41.5444 -84.3011 320° Northwest 327 376 16,000 -528 Level Chicago Center
Tue 03:38:11 PM 41.6008 -84.4003 307° West 335 386 14,900 -1,248 Descending Chicago Center
Tue 03:39:13 PM 41.6581 -84.5028 307° West 344 396 13,400 -1,500 Descending Chicago Center
Tue 03:40:15 PM 41.7131 -84.6014 307° West 337 388 11,800 -1,161 Descending Chicago Center
Tue 03:41:17 PM 41.7819 -84.7081 311° West 324 373 11,000 -387 Descending Chicago Center
Tue 03:42:19 PM 41.8514 -84.7764 324° Northwest 315 362 11,000 -484 Level Chicago Center
Tue 03:43:21 PM 41.9200 -84.8464 323° Northwest 314 361 10,000 -484 Descending Chicago Center
Tue 03:44:23 PM 41.9861 -84.9356 315° West 326 375 10,000  Level Chicago Center
Tue 03:45:25 PM 42.0461 -85.0278 311° West 330 380 10,000 -629 Level Chicago Center
Tue 03:46:27 PM 42.1064 -85.1247 310° West 302 348 8,700 -2,081 Descending Chicago Center
Tue 03:47:29 PM 42.1536 -85.2028 309° West 276 318 5,700 -2,496 Descending Chicago Center
Tue 03:48:32 PM 42.2000 -85.2800 309° West 270 311 3,500 -1,584 Descending Chicago Center
Tue 03:49:34 PM 42.2472 -85.3114 334° Northwest 217 250 2,400 -1,016 Descending Chicago Center
Tue 03:50:36 PM 42.2817 -85.2869 28° Northeast 166 191 1,400 -968 Descending Chicago Center

Login

Don't have an account? Register now (free) for customized features, flight alerts, and more!